Terminal Aerodrome Forecast
Issued by NWS

Current Version | Previous Version | Text Only | Print | Product List | Glossary On
Versions: 1 2 3 4 5 6 7 8 9 10 11 12 13 14 15 16 17
000
FTUS45 KABQ 031740
TAFGUP
TAF
KGUP 031740Z 0318/0418 20007KT P6SM VCSH SCT070
     FM032000 21011KT P6SM VCTS BKN070CB
     FM032300 20011KT P6SM VCSH BKN080=

USA.gov is the U.S. government's official web portal to all federal, state and local government web resources and services.